createdAt,value
2022-08-18T00:02:04.040Z,99873.16
2022-08-18T00:04:41.948Z,99877.34
2022-08-18T00:07:24.291Z,99873.19
2022-08-18T00:09:53.400Z,99869.63
2022-08-18T00:12:24.902Z,99860.41
2022-08-18T00:14:55.336Z,99861.66
2022-08-18T00:17:25.205Z,99860.84
2022-08-18T00:19:54.198Z,99848.72
2022-08-18T00:22:24.864Z,99870.00
2022-08-18T00:24:56.176Z,99874.81
2022-08-18T00:27:28.674Z,99884.22
2022-08-18T00:30:00.441Z,99884.63
2022-08-18T00:32:33.690Z,99887.50
2022-08-18T00:35:08.268Z,99877.03
2022-08-18T00:37:38.611Z,99872.44
2022-08-18T00:40:09.648Z,99879.75
2022-08-18T00:42:44.884Z,99891.00
2022-08-18T00:45:16.259Z,99806.09
2022-08-18T00:47:45.452Z,99868.16
2022-08-18T00:50:17.725Z,99879.91
2022-08-18T00:52:54.163Z,99880.75
2022-08-18T00:55:24.979Z,99873.22
2022-08-18T00:58:01.857Z,99864.88
2022-08-18T01:00:30.721Z,99869.84
2022-08-18T01:03:03.600Z,99870.31
2022-08-18T01:05:40.898Z,99874.19
2022-08-18T01:08:15.452Z,99873.84
2022-08-18T01:10:46.710Z,99874.88
2022-08-18T01:13:15.435Z,99798.22
2022-08-18T01:15:44.395Z,99869.00
2022-08-18T01:18:32.883Z,99876.44
2022-08-18T01:21:27.718Z,99886.91
2022-08-18T01:23:59.267Z,99888.38
2022-08-18T01:26:27.880Z,99881.88
2022-08-18T01:28:56.594Z,99885.00
2022-08-18T01:31:38.235Z,99885.63
2022-08-18T01:34:08.527Z,99885.84
2022-08-18T01:36:40.777Z,99880.66
2022-08-18T01:39:14.602Z,99877.34
2022-08-18T01:42:04.843Z,99860.56
2022-08-18T01:44:34.089Z,99880.66
2022-08-18T01:47:02.927Z,99879.59
2022-08-18T01:49:31.749Z,99885.88
2022-08-18T01:52:00.546Z,99893.97
2022-08-18T01:54:31.336Z,99894.34
2022-08-18T01:57:00.164Z,99898.38
2022-08-18T01:59:28.848Z,99897.63
2022-08-18T02:01:58.849Z,99892.63
2022-08-18T02:04:36.166Z,99888.03
2022-08-18T02:07:10.170Z,99896.50
2022-08-18T02:09:42.076Z,99897.53
2022-08-18T02:12:11.590Z,99906.50
2022-08-18T02:14:40.851Z,99898.25
2022-08-18T02:17:12.195Z,99898.00
2022-08-18T02:19:44.706Z,99896.03
2022-08-18T02:22:15.630Z,99896.31
2022-08-18T02:24:46.773Z,99864.91
2022-08-18T02:27:17.311Z,99802.34
2022-08-18T02:29:46.256Z,99892.63
2022-08-18T02:32:15.085Z,99865.47
2022-08-18T02:34:43.761Z,99900.38
2022-08-18T02:37:15.408Z,99894.56
2022-08-18T02:39:45.851Z,99884.44
2022-08-18T02:42:17.205Z,99893.22
2022-08-18T02:44:45.929Z,99890.88
2022-08-18T02:47:14.910Z,99894.44
2022-08-18T02:49:44.023Z,99863.75
2022-08-18T02:52:13.311Z,99874.28
2022-08-18T02:54:42.127Z,99884.00
2022-08-18T02:57:14.773Z,99905.13
2022-08-18T02:59:47.311Z,99906.56
2022-08-18T03:02:17.144Z,99891.09
2022-08-18T03:04:45.958Z,99913.13
2022-08-18T03:07:15.652Z,99911.84
2022-08-18T03:09:44.945Z,99891.56
2022-08-18T03:12:14.987Z,99908.00
2022-08-18T03:14:43.688Z,99909.03
2022-08-18T03:17:13.614Z,99919.94
2022-08-18T03:19:47.709Z,99923.97
2022-08-18T03:22:28.327Z,99914.41
2022-08-18T03:25:01.172Z,99916.00
2022-08-18T03:27:31.704Z,99923.97
2022-08-18T03:30:00.821Z,99916.00
2022-08-18T03:32:29.836Z,99907.72
2022-08-18T03:34:59.501Z,99925.34
2022-08-18T03:37:28.235Z,99931.34
2022-08-18T03:39:57.291Z,99912.41
2022-08-18T03:42:26.121Z,99932.78
2022-08-18T03:44:56.296Z,99930.75
2022-08-18T03:47:25.122Z,99930.66
2022-08-18T03:49:54.034Z,99928.00
2022-08-18T03:52:23.722Z,99926.97
2022-08-18T03:54:53.209Z,99919.28
2022-08-18T03:57:21.967Z,99930.41
2022-08-18T03:59:50.762Z,99935.22
2022-08-18T04:02:20.756Z,99910.66
2022-08-18T04:04:49.705Z,99943.28
2022-08-18T04:07:20.234Z,99936.28
2022-08-18T04:09:48.959Z,99939.72
2022-08-18T04:12:18.837Z,99866.06
2022-08-18T04:14:50.262Z,99936.47
2022-08-18T04:17:25.430Z,99934.88
2022-08-18T04:19:55.341Z,99930.41
2022-08-18T04:22:25.505Z,99924.72
2022-08-18T04:24:58.388Z,99926.59
2022-08-18T04:27:29.156Z,99918.19
2022-08-18T04:29:58.235Z,99935.00
2022-08-18T04:32:34.222Z,99937.03
2022-08-18T04:35:04.228Z,99940.41
2022-08-18T04:37:33.213Z,99936.06
2022-08-18T04:40:09.601Z,99946.31
2022-08-18T04:42:43.211Z,99947.38
2022-08-18T04:45:12.991Z,99934.47
2022-08-18T04:47:46.504Z,99944.84
2022-08-18T04:50:15.222Z,99952.75
2022-08-18T04:53:01.553Z,99951.97
2022-08-18T04:55:32.713Z,99949.66
2022-08-18T04:58:02.156Z,99933.94
2022-08-18T05:00:30.845Z,99956.19
2022-08-18T05:03:01.121Z,99950.44
2022-08-18T05:05:29.914Z,99954.41
2022-08-18T05:07:58.729Z,99951.44
2022-08-18T05:10:27.504Z,99949.22
2022-08-18T05:12:57.571Z,99952.56
2022-08-18T05:15:26.483Z,99946.38
2022-08-18T05:17:56.688Z,99949.75
2022-08-18T05:20:29.067Z,99954.72
2022-08-18T05:22:57.902Z,99949.38
2022-08-18T05:25:26.785Z,99931.78
2022-08-18T05:27:55.561Z,99949.28
2022-08-18T05:30:24.447Z,99952.13
2022-08-18T05:32:53.167Z,99948.19
2022-08-18T05:35:26.682Z,99956.09
2022-08-18T05:38:27.028Z,99950.91
2022-08-18T05:41:08.635Z,99953.81
2022-08-18T05:43:51.232Z,99950.31
2022-08-18T05:46:25.929Z,99941.94
2022-08-18T05:48:54.727Z,99948.03
2022-08-18T05:51:30.164Z,99933.41
2022-08-18T05:54:20.097Z,99937.38
2022-08-18T05:56:53.171Z,99947.41
2022-08-18T05:59:26.264Z,99948.28
2022-08-18T06:01:57.345Z,99947.88
2022-08-18T06:04:36.525Z,99955.59
2022-08-18T06:07:09.252Z,99953.28
2022-08-18T06:09:45.120Z,99955.75
2022-08-18T06:12:26.944Z,99958.28
2022-08-18T06:15:06.014Z,99952.81
2022-08-18T06:18:13.319Z,99963.69
2022-08-18T06:20:56.240Z,99951.75
2022-08-18T06:23:33.672Z,99974.56
2022-08-18T06:26:20.913Z,99967.88
2022-08-18T06:29:06.625Z,99967.38
2022-08-18T06:31:46.685Z,99967.03
2022-08-18T06:34:26.460Z,99969.88
2022-08-18T06:37:01.730Z,99972.16
2022-08-18T06:39:36.342Z,99905.50
2022-08-18T06:42:06.963Z,99950.34
2022-08-18T06:44:38.997Z,99962.91
2022-08-18T06:47:16.240Z,99959.00
2022-08-18T06:49:51.417Z,99950.78
2022-08-18T06:52:27.215Z,99963.81
2022-08-18T06:54:57.917Z,99945.31
2022-08-18T06:57:31.598Z,99959.06
2022-08-18T07:00:03.642Z,99969.28
2022-08-18T07:02:46.943Z,99961.09
2022-08-18T07:05:24.797Z,99952.78
2022-08-18T07:08:10.710Z,99965.78
2022-08-18T07:10:41.605Z,99963.47
2022-08-18T07:13:21.064Z,99963.13
2022-08-18T07:15:50.904Z,99957.03
2022-08-18T07:18:26.631Z,99959.50
2022-08-18T07:20:58.762Z,99968.72
2022-08-18T07:23:33.926Z,99970.28
2022-08-18T07:26:10.569Z,99939.69
2022-08-18T07:28:44.525Z,99972.16
2022-08-18T07:31:39.230Z,99981.16
2022-08-18T07:34:12.629Z,99955.56
2022-08-18T07:36:48.108Z,99964.19
2022-08-18T07:39:24.142Z,99971.69
2022-08-18T07:42:00.248Z,99958.78
2022-08-18T07:44:41.826Z,99970.44
2022-08-18T07:47:17.711Z,99979.84
2022-08-18T07:50:15.562Z,99972.94
2022-08-18T07:52:47.006Z,99974.38
2022-08-18T07:55:28.231Z,99981.84
2022-08-18T07:58:08.543Z,99983.81
2022-08-18T08:00:58.678Z,99918.91
2022-08-18T08:03:39.475Z,99973.81
2022-08-18T08:06:15.451Z,99985.25
2022-08-18T08:08:51.413Z,99948.59
2022-08-18T08:11:31.924Z,99924.63
2022-08-18T08:14:14.332Z,99971.06
2022-08-18T08:16:50.032Z,99975.91
2022-08-18T08:20:00.026Z,99974.16
2022-08-18T08:22:38.685Z,99970.41
2022-08-18T08:25:42.683Z,99849.56
2022-08-18T08:28:18.510Z,99962.81
2022-08-18T08:31:25.594Z,99966.97
2022-08-18T08:34:02.854Z,99974.78
2022-08-18T08:36:37.196Z,99976.16
2022-08-18T08:39:11.887Z,99966.44
2022-08-18T08:41:45.897Z,99971.44
2022-08-18T08:44:19.432Z,99986.44
2022-08-18T08:46:52.861Z,99973.78
2022-08-18T08:49:31.906Z,99933.44
2022-08-18T08:52:04.869Z,99982.44
2022-08-18T08:54:39.282Z,99981.63
2022-08-18T08:57:10.428Z,99982.34
2022-08-18T08:59:41.794Z,99981.59
2022-08-18T09:05:23.207Z,99985.31
2022-08-18T09:08:12.246Z,99987.34
2022-08-18T09:11:19.877Z,99972.47
2022-08-18T09:14:12.596Z,99978.34
2022-08-18T09:16:53.210Z,99978.34
2022-08-18T09:19:48.585Z,99983.75
2022-08-18T09:22:32.374Z,99939.50
2022-08-18T09:25:01.741Z,99968.28
2022-08-18T09:28:09.289Z,99973.81
2022-08-18T09:30:53.350Z,99941.03
2022-08-18T09:33:49.916Z,99968.00
2022-08-18T09:36:33.877Z,99972.25
2022-08-18T09:39:40.062Z,99976.34
2022-08-18T09:42:14.499Z,99967.97
2022-08-18T09:48:31.639Z,99974.66
2022-08-18T09:51:24.727Z,99965.22
2022-08-18T09:54:14.693Z,99970.13
2022-08-18T09:57:19.378Z,99968.41
2022-08-18T10:00:00.640Z,99976.13
2022-08-18T10:03:13.676Z,99976.47
2022-08-18T10:06:12.588Z,99980.88
2022-08-18T10:09:14.588Z,99972.56
2022-08-18T10:12:07.243Z,99970.13
2022-08-18T10:14:59.599Z,99968.59
2022-08-18T10:17:42.317Z,99957.09
2022-08-18T10:20:26.920Z,99957.59
2022-08-18T10:22:57.987Z,99964.78
2022-08-18T10:25:39.849Z,99909.44
2022-08-18T10:28:34.537Z,99970.97
2022-08-18T10:31:10.370Z,99820.63
2022-08-18T10:34:08.471Z,99972.56
2022-08-18T10:36:49.206Z,99964.09
2022-08-18T10:39:21.092Z,99968.94
2022-08-18T10:42:07.869Z,99950.59
2022-08-18T10:44:45.921Z,99971.44
2022-08-18T10:47:24.922Z,99980.06
2022-08-18T10:50:05.828Z,99977.38
2022-08-18T10:53:17.031Z,99916.31
2022-08-18T10:55:51.736Z,99993.28
2022-08-18T10:58:43.598Z,99936.03
2022-08-18T11:01:24.704Z,99974.41
2022-08-18T11:04:11.656Z,99937.00
2022-08-18T11:06:50.282Z,99966.50
2022-08-18T11:09:26.748Z,99986.56
2022-08-18T11:12:00.117Z,99971.63
2022-08-18T11:15:00.370Z,99984.22
2022-08-18T11:17:44.311Z,99985.56
2022-08-18T11:23:14.823Z,99970.63
2022-08-18T11:25:45.010Z,99958.63
2022-08-18T11:28:18.768Z,99955.16
2022-08-18T11:30:52.565Z,99967.81
2022-08-18T11:33:24.577Z,99951.91
2022-08-18T11:35:58.581Z,99937.19
2022-08-18T11:38:31.319Z,99952.84
2022-08-18T11:41:13.754Z,99956.50
2022-08-18T11:43:47.506Z,99955.06
2022-08-18T11:49:26.191Z,99964.25
2022-08-18T11:52:02.369Z,99945.06
2022-08-18T11:54:50.998Z,99951.78
2022-08-18T11:57:46.233Z,99955.41
2022-08-18T12:00:54.357Z,99949.63
2022-08-18T12:03:31.938Z,99954.06
2022-08-18T12:06:19.551Z,99951.59
2022-08-18T12:09:00.540Z,99944.34
2022-08-18T12:11:32.624Z,99948.72
2022-08-18T12:14:31.744Z,99937.72
2022-08-18T12:16:55.824Z,99951.91
2022-08-18T12:19:28.074Z,99949.75
2022-08-18T12:22:00.525Z,99950.47
2022-08-18T12:27:25.872Z,99953.38
2022-08-18T12:30:02.120Z,99948.91
2022-08-18T12:32:48.906Z,99936.53
2022-08-18T12:38:13.108Z,99945.19
2022-08-18T12:40:43.389Z,99937.41
2022-08-18T12:43:12.532Z,99937.66
2022-08-18T12:45:42.581Z,99931.41
2022-08-18T12:48:12.005Z,99932.59
2022-08-18T12:53:57.878Z,99912.97
2022-08-18T12:56:24.906Z,99933.34
2022-08-18T12:58:55.546Z,99928.75
2022-08-18T13:01:26.782Z,99889.28
2022-08-18T13:04:12.239Z,99926.56
2022-08-18T13:06:58.886Z,99931.88
2022-08-18T13:09:52.499Z,99931.28
2022-08-18T13:12:23.914Z,99926.44
2022-08-18T13:14:55.179Z,99929.81
2022-08-18T13:17:29.979Z,99924.47
2022-08-18T13:20:06.642Z,99923.16
2022-08-18T13:22:37.106Z,99915.59
2022-08-18T13:25:09.787Z,99930.03
2022-08-18T13:27:43.543Z,99920.66
2022-08-18T13:30:31.556Z,99910.03
2022-08-18T13:33:05.350Z,99919.44
2022-08-18T13:35:44.081Z,99918.72
2022-08-18T13:38:20.640Z,99925.13
2022-08-18T13:40:52.653Z,99929.53
2022-08-18T13:43:26.139Z,99922.91
2022-08-18T13:45:56.455Z,99910.63
2022-08-18T13:48:25.872Z,99918.22
2022-08-18T13:50:56.782Z,99933.47
2022-08-18T13:53:27.377Z,99913.16
2022-08-18T13:55:59.479Z,99923.75
2022-08-18T13:58:29.680Z,99929.22
2022-08-18T14:01:22.859Z,99935.09
2022-08-18T14:03:50.081Z,99932.50
2022-08-18T14:06:23.797Z,99930.03
2022-08-18T14:08:53.958Z,99931.25
2022-08-18T14:11:33.172Z,99940.47
2022-08-18T14:14:02.928Z,99943.00
2022-08-18T14:16:32.926Z,99946.28
2022-08-18T14:19:19.602Z,99941.13
2022-08-18T14:22:11.790Z,99948.66
2022-08-18T14:25:11.423Z,99948.97
2022-08-18T14:27:43.003Z,99946.31
2022-08-18T14:30:25.230Z,99963.16
2022-08-18T14:32:55.852Z,99960.09
2022-08-18T14:35:33.246Z,99963.88
2022-08-18T14:38:16.546Z,99968.50
2022-08-18T14:40:48.931Z,99950.94
2022-08-18T14:43:24.965Z,99968.75
2022-08-18T14:45:58.040Z,99964.03
2022-08-18T14:48:27.712Z,99955.22
2022-08-18T14:50:58.941Z,99957.22
2022-08-18T14:53:29.423Z,99971.25
2022-08-18T14:55:59.572Z,99966.97
2022-08-18T14:58:32.057Z,99948.25
2022-08-18T15:01:08.461Z,99965.38
2022-08-18T15:03:39.962Z,99962.78
2022-08-18T15:06:12.946Z,99972.13
2022-08-18T15:08:46.971Z,99962.06
2022-08-18T15:11:16.642Z,99979.00
2022-08-18T15:13:47.303Z,99982.34
2022-08-18T15:16:17.736Z,99930.88
2022-08-18T15:18:48.156Z,99979.78
2022-08-18T15:21:38.811Z,99976.44
2022-08-18T15:24:26.812Z,99984.22
2022-08-18T15:26:57.990Z,99969.16
2022-08-18T15:29:29.207Z,99981.41
2022-08-18T15:32:05.312Z,99971.78
2022-08-18T15:34:37.111Z,99982.75
2022-08-18T15:37:19.601Z,99974.09
2022-08-18T15:39:55.489Z,99974.06
2022-08-18T15:42:25.082Z,99978.94
2022-08-18T15:44:55.433Z,99968.47
2022-08-18T15:47:25.901Z,99978.38
2022-08-18T15:49:55.932Z,99967.75
2022-08-18T15:52:26.956Z,99973.91
2022-08-18T15:55:02.210Z,99963.94
2022-08-18T15:57:40.034Z,99959.72
2022-08-18T16:00:12.209Z,99963.63
2022-08-18T16:02:44.640Z,99981.16
2022-08-18T16:05:18.223Z,99955.75
2022-08-18T16:07:47.771Z,99951.66
2022-08-18T16:10:18.528Z,99943.78
2022-08-18T16:12:48.756Z,99963.56
2022-08-18T16:15:21.763Z,99965.41
2022-08-18T16:17:52.472Z,99966.97
2022-08-18T16:20:23.633Z,99964.66
2022-08-18T16:22:54.015Z,99972.53
2022-08-18T16:25:22.991Z,99964.06
2022-08-18T16:27:54.050Z,99967.53
2022-08-18T16:30:27.337Z,99917.75
2022-08-18T16:32:56.260Z,99976.84
2022-08-18T16:35:25.341Z,99970.38
2022-08-18T16:37:54.781Z,99975.56
2022-08-18T16:40:24.288Z,99976.66
2022-08-18T16:42:57.226Z,99984.66
2022-08-18T16:45:28.149Z,99978.03
2022-08-18T16:47:57.390Z,99993.59
2022-08-18T16:50:26.441Z,99974.69
2022-08-18T16:52:55.331Z,99997.44
2022-08-18T16:55:24.645Z,99998.84
2022-08-18T16:58:15.648Z,99994.47
2022-08-18T17:01:03.649Z,99994.75
2022-08-18T17:03:50.297Z,99993.94
2022-08-18T17:06:20.577Z,100002.91
2022-08-18T17:08:50.495Z,100017.78
2022-08-18T17:11:20.548Z,100011.56
2022-08-18T17:13:51.315Z,100018.00
2022-08-18T17:16:24.831Z,100005.19
2022-08-18T17:18:55.464Z,100007.19
2022-08-18T17:21:28.023Z,100008.13
2022-08-18T17:23:57.546Z,100014.72
2022-08-18T17:26:41.710Z,100023.13
2022-08-18T17:29:16.638Z,100012.50
2022-08-18T17:31:51.579Z,100016.09
2022-08-18T17:34:24.049Z,100021.81
2022-08-18T17:36:57.114Z,100019.34
2022-08-18T17:39:31.900Z,100016.72
2022-08-18T17:42:18.285Z,100006.84
2022-08-18T17:44:52.600Z,100031.81
2022-08-18T17:47:30.149Z,100021.38
2022-08-18T17:50:34.880Z,100022.19
2022-08-18T17:53:07.189Z,100025.28
2022-08-18T17:55:40.388Z,100030.41
2022-08-18T17:58:16.225Z,100034.34
2022-08-18T18:00:46.332Z,100038.97
2022-08-18T18:03:16.816Z,100040.13
2022-08-18T18:05:52.312Z,100023.78
2022-08-18T18:08:21.551Z,100029.44
2022-08-18T18:11:07.862Z,100031.56
2022-08-18T18:13:36.771Z,100029.25
2022-08-18T18:16:27.106Z,100025.09
2022-08-18T18:19:00.977Z,100019.72
2022-08-18T18:21:56.589Z,100030.66
2022-08-18T18:24:32.147Z,100042.63
2022-08-18T18:27:01.561Z,100030.47
2022-08-18T18:29:38.116Z,100039.00
2022-08-18T18:32:24.254Z,100040.25
2022-08-18T18:35:10.790Z,100030.97
2022-08-18T18:37:49.481Z,100030.97
2022-08-18T18:40:31.169Z,100006.28
2022-08-18T18:43:20.653Z,100032.06
2022-08-18T18:46:27.269Z,100018.72
2022-08-18T18:49:07.977Z,100028.50
2022-08-18T18:51:44.741Z,100027.53
2022-08-18T18:54:26.299Z,100033.44
2022-08-18T18:56:57.783Z,100033.00
2022-08-18T18:59:40.757Z,100036.47
2022-08-18T19:02:34.089Z,100037.22
2022-08-18T19:05:18.586Z,100009.13
2022-08-18T19:08:03.785Z,100036.16
2022-08-18T19:10:38.501Z,100022.47
2022-08-18T19:13:30.311Z,100041.28
2022-08-18T19:16:11.848Z,100043.38
2022-08-18T19:19:37.520Z,100025.03
2022-08-18T19:22:05.585Z,100035.06
2022-08-18T19:24:44.019Z,100038.28
2022-08-18T19:27:25.525Z,100021.59
2022-08-18T19:29:58.790Z,100036.38
2022-08-18T19:32:38.487Z,100041.47
2022-08-18T19:35:12.140Z,100032.16
2022-08-18T19:37:56.166Z,100033.47
2022-08-18T19:40:33.153Z,100037.44
2022-08-18T19:43:08.841Z,100035.03
2022-08-18T19:45:47.212Z,100032.41
2022-08-18T19:48:22.079Z,100043.72
2022-08-18T19:50:57.699Z,100039.19
2022-08-18T19:53:45.831Z,100015.22
2022-08-18T19:56:34.617Z,100047.81
2022-08-18T19:59:27.355Z,100045.38
2022-08-18T20:02:19.606Z,100040.63
2022-08-18T20:05:04.690Z,100038.91
2022-08-18T20:08:06.447Z,100046.47
2022-08-18T20:11:04.209Z,100038.91
2022-08-18T20:13:42.913Z,100029.91
2022-08-18T20:16:28.675Z,100028.56
2022-08-18T20:19:44.267Z,100040.28
2022-08-18T20:22:30.299Z,100038.59
2022-08-18T20:25:05.950Z,100042.25
2022-08-18T20:27:37.201Z,99957.69
2022-08-18T20:30:27.551Z,100045.53
2022-08-18T20:33:10.874Z,100035.91
2022-08-18T20:35:42.693Z,100034.03
2022-08-18T20:38:20.943Z,100036.75
2022-08-18T20:40:51.448Z,100043.28
2022-08-18T20:43:30.445Z,100038.44
2022-08-18T20:46:21.167Z,100043.06
2022-08-18T20:49:06.991Z,100045.59
2022-08-18T20:51:52.317Z,100011.09
2022-08-18T20:54:33.124Z,100031.16
2022-08-18T20:57:04.216Z,100033.94
2022-08-18T20:59:36.865Z,100038.75
2022-08-18T21:02:09.396Z,100036.44
2022-08-18T21:04:47.308Z,99982.75
2022-08-18T21:07:37.130Z,100040.69
2022-08-18T21:10:19.118Z,100039.03
2022-08-18T21:12:52.976Z,100040.69
2022-08-18T21:15:24.493Z,100020.63
2022-08-18T21:18:03.864Z,100044.06
2022-08-18T21:20:34.760Z,100040.31
2022-08-18T21:23:07.345Z,100041.34
2022-08-18T21:25:36.423Z,100045.53
2022-08-18T21:28:07.098Z,100043.66
2022-08-18T21:30:35.862Z,100050.38
2022-08-18T21:33:21.364Z,100043.44
2022-08-18T21:35:50.237Z,100056.81
2022-08-18T21:38:27.340Z,100061.03
2022-08-18T21:40:59.310Z,100054.94
2022-08-18T21:43:38.241Z,100037.97
2022-08-18T21:46:09.739Z,100050.75
2022-08-18T21:48:50.482Z,100066.66
2022-08-18T21:51:21.755Z,100050.75
2022-08-18T21:53:52.080Z,100016.03
2022-08-18T21:56:22.895Z,100062.69
2022-08-18T21:59:07.692Z,100058.28
2022-08-18T22:01:38.136Z,100063.72
2022-08-18T22:04:24.390Z,100059.97
2022-08-18T22:06:55.853Z,100065.81
2022-08-18T22:09:44.567Z,100072.09
2022-08-18T22:12:36.896Z,100003.00
2022-08-18T22:15:10.973Z,100058.91
2022-08-18T22:17:52.248Z,100080.03
2022-08-18T22:20:42.496Z,100064.91
2022-08-18T22:23:51.894Z,100071.22
2022-08-18T22:26:25.530Z,100044.84
2022-08-18T22:28:58.411Z,100066.13
2022-08-18T22:31:31.246Z,100059.88
2022-08-18T22:34:04.705Z,100068.03
2022-08-18T22:36:38.908Z,100058.19
2022-08-18T22:39:09.226Z,100045.63
2022-08-18T22:41:38.837Z,100060.91
2022-08-18T22:44:08.363Z,100051.06
2022-08-18T22:46:37.957Z,100056.91
2022-08-18T22:49:06.794Z,100065.28
2022-08-18T22:51:37.420Z,100075.53
2022-08-18T22:54:09.876Z,100069.47
2022-08-18T22:56:39.449Z,100070.72
2022-08-18T22:59:22.997Z,100064.84
2022-08-18T23:01:52.277Z,100066.13
2022-08-18T23:04:22.992Z,100064.84
2022-08-18T23:06:53.888Z,100049.34
2022-08-18T23:09:26.924Z,100048.47
2022-08-18T23:11:58.205Z,100044.88
2022-08-18T23:14:27.128Z,100059.31
2022-08-18T23:16:56.279Z,100053.50
2022-08-18T23:19:25.120Z,100067.66
2022-08-18T23:21:55.305Z,100066.22
2022-08-18T23:24:25.068Z,100037.91
2022-08-18T23:26:54.109Z,100071.59
2022-08-18T23:29:23.440Z,100064.19
2022-08-18T23:31:52.585Z,100061.78
2022-08-18T23:34:23.889Z,100068.47
2022-08-18T23:36:56.599Z,100063.38
2022-08-18T23:39:26.849Z,100061.69
2022-08-18T23:41:55.782Z,100067.53
2022-08-18T23:44:27.447Z,100069.19
2022-08-18T23:46:58.169Z,100072.25
2022-08-18T23:49:28.744Z,100063.03
2022-08-18T23:52:00.253Z,100074.16
2022-08-18T23:54:31.149Z,100075.75
2022-08-18T23:57:00.030Z,100025.44
2022-08-18T23:59:29.864Z,100088.66
